Time,TemperatureF,DewpointF,PressureIn,WindDirection,WindDirectionDegrees,WindSpeedMPH,WindSpeedGustMPH,Humidity,HourlyPrecipIn,Conditions,Clouds,dailyrainin,SoftwareType,DateUTC
2013-09-24 00:00:00,79.0,78.1,29.97,SE,124,0.0,0.0,97,0.00,,---,0.68,VWS V15.00,2013-09-24 04:00:00,
2013-09-24 00:01:00,78.8,77.9,29.96,East,88,0.0,2.0,97,0.00,,---,0.68,VWS V14.01,2013-09-24 04:01:00,
2013-09-24 00:04:00,78.8,77.9,29.95,East,86,0.0,2.0,97,0.00,,---,0.00,VWS V14.01,2013-09-24 04:04:00,
2013-09-24 00:06:00,78.7,77.8,29.96,East,86,0.0,2.0,97,0.00,,---,0.00,VWS V14.01,2013-09-24 04:06:00,
2013-09-24 00:09:00,78.7,77.8,29.96,East,86,0.0,2.0,97,0.00,,---,0.00,VWS V14.01,2013-09-24 04:09:00,
2013-09-24 00:14:00,78.7,78.1,29.96,East,86,0.0,2.0,98,0.00,,---,0.00,VWS V14.01,2013-09-24 04:14:00,
2013-09-24 00:15:00,79.1,78.2,29.98,SE,124,0.0,0.0,97,0.00,,---,0.68,VWS V15.00,2013-09-24 04:15:00,
2013-09-24 00:19:00,78.7,78.1,29.97,East,86,0.0,0.0,98,0.00,,---,0.00,VWS V14.01,2013-09-24 04:19:00,
2013-09-24 00:25:00,78.7,78.1,29.98,East,86,0.0,0.0,98,0.00,,---,0.00,VWS V14.01,2013-09-24 04:25:00,
2013-09-24 00:30:00,78.8,78.2,29.98,East,86,0.0,0.0,98,0.00,,---,0.00,VWS V14.01,2013-09-24 04:30:00,
2013-09-24 00:35:00,78.9,78.3,29.97,East,86,0.0,0.0,98,0.00,,---,0.00,VWS V14.01,2013-09-24 04:35:00,
2013-09-24 00:40:00,78.9,78.3,29.98,East,86,0.0,0.0,98,0.00,,---,0.00,VWS V14.01,2013-09-24 04:40:00,
2013-09-24 00:45:00,79.0,78.4,29.97,East,86,0.0,1.0,98,0.00,,---,0.00,VWS V14.01,2013-09-24 04:45:00,
2013-09-24 00:50:00,79.0,78.4,29.96,East,86,0.0,1.0,98,0.00,,---,0.00,VWS V14.01,2013-09-24 04:50:00,
2013-09-24 00:55:00,79.0,78.4,29.97,East,86,0.0,1.0,98,0.00,,---,0.00,VWS V14.01,2013-09-24 04:55:00,
2013-09-24 01:00:00,79.0,78.4,29.97,NNE,13,0.0,1.0,98,0.00,,---,0.00,VWS V14.01,2013-09-24 05:00:00,
2013-09-24 01:05:00,78.9,78.3,29.97,NNE,13,0.0,1.0,98,0.00,,---,0.00,VWS V14.01,2013-09-24 05:05:00,
2013-09-24 01:10:00,79.0,78.4,29.97,NNE,13,0.0,1.0,98,0.00,,---,0.00,VWS V14.01,2013-09-24 05:10:00,
2013-09-24 01:15:00,79.0,78.4,29.96,NNE,13,0.0,1.0,98,0.00,,---,0.00,VWS V14.01,2013-09-24 05:15:00,
2013-09-24 01:21:00,79.0,78.4,29.97,NNE,13,0.0,0.0,98,0.00,,---,0.00,VWS V14.01,2013-09-24 05:21:00,
2013-09-24 01:26:00,79.0,78.4,29.96,ESE,120,0.0,1.0,98,0.00,,---,0.00,VWS V14.01,2013-09-24 05:26:00,
2013-09-24 01:30:00,78.8,78.2,29.98,East,86,0.0,0.0,98,0.00,,---,0.00,VWS V15.00,2013-09-24 05:30:00,
2013-09-24 01:31:00,79.1,78.5,29.96,SE,143,1.0,1.0,98,0.00,,---,0.00,VWS V14.01,2013-09-24 05:31:00,
2013-09-24 01:36:00,79.1,78.5,29.96,SE,143,0.0,1.0,98,0.00,,---,0.00,VWS V14.01,2013-09-24 05:36:00,
2013-09-24 01:41:00,79.2,78.6,29.97,West,273,0.0,1.0,98,0.00,,---,0.00,VWS V14.01,2013-09-24 05:41:00,
2013-09-24 01:45:00,79.0,78.4,29.97,East,86,0.0,1.0,98,0.00,,---,0.00,VWS V15.00,2013-09-24 05:45:00,
2013-09-24 01:46:00,79.2,78.6,29.98,WSW,257,4.0,7.0,98,0.00,,---,0.00,VWS V14.01,2013-09-24 05:46:00,
2013-09-24 01:51:00,77.6,75.4,29.98,WNW,297,4.0,13.0,93,0.00,,---,0.00,VWS V14.01,2013-09-24 05:51:00,
2013-09-24 01:56:00,76.2,74.3,29.97,WNW,285,3.0,13.0,94,0.05,,---,0.05,VWS V14.01,2013-09-24 05:56:00,
2013-09-24 02:00:00,79.0,78.4,29.97,NNE,13,0.0,1.0,98,0.00,,---,0.00,VWS V15.00,2013-09-24 06:00:00,
2013-09-24 02:01:00,75.3,74.1,29.97,WSW,251,1.0,13.0,96,0.11,,---,0.11,VWS V14.01,2013-09-24 06:01:00,
2013-09-24 02:06:00,75.0,74.1,29.97,SW,226,0.0,3.0,97,0.13,,---,0.13,VWS V14.01,2013-09-24 06:06:00,
2013-09-24 02:11:00,74.9,74.0,29.96,North,10,0.0,3.0,97,0.16,,---,0.16,VWS V14.01,2013-09-24 06:11:00,
2013-09-24 02:15:00,79.0,78.4,29.96,NNE,13,0.0,1.0,98,0.00,,---,0.00,VWS V15.00,2013-09-24 06:15:00,
2013-09-24 02:16:00,74.8,73.9,29.96,North,357,0.0,3.0,97,0.17,,---,0.17,VWS V14.01,2013-09-24 06:16:00,
2013-09-24 02:21:00,74.8,73.9,29.96,North,357,0.0,0.0,97,0.17,,---,0.17,VWS V14.01,2013-09-24 06:21:00,
2013-09-24 02:26:00,74.8,74.2,29.96,North,357,0.0,1.0,98,0.17,,---,0.17,VWS V14.01,2013-09-24 06:26:00,
2013-09-24 02:30:00,79.1,78.5,29.96,SE,143,0.0,1.0,98,0.00,,---,0.00,VWS V15.00,2013-09-24 06:30:00,
2013-09-24 02:31:00,74.8,74.2,29.96,North,357,0.0,1.0,98,0.17,,---,0.17,VWS V14.01,2013-09-24 06:31:00,
2013-09-24 02:36:00,74.9,74.3,29.96,North,358,0.0,0.0,98,0.18,,---,0.18,VWS V14.01,2013-09-24 06:36:00,
2013-09-24 02:41:00,75.0,74.4,29.96,North,358,0.0,0.0,98,0.19,,---,0.19,VWS V14.01,2013-09-24 06:41:00,
2013-09-24 02:45:00,79.2,78.6,29.98,NNW,343,3.0,7.0,98,0.00,,---,0.00,VWS V15.00,2013-09-24 06:45:00,
2013-09-24 02:46:00,75.1,74.5,29.95,North,358,0.0,0.0,98,0.20,,---,0.20,VWS V14.01,2013-09-24 06:46:00,
2013-09-24 02:51:00,75.2,74.6,29.95,North,6,0.0,1.0,98,0.20,,---,0.20,VWS V14.01,2013-09-24 06:51:00,
2013-09-24 02:56:00,75.2,74.6,29.95,East,88,0.0,1.0,98,0.20,,---,0.20,VWS V14.01,2013-09-24 06:56:00,
2013-09-24 03:00:00,75.3,74.1,29.97,WSW,246,1.0,13.0,96,0.11,,---,0.11,VWS V15.00,2013-09-24 07:00:00,
2013-09-24 03:01:00,75.3,74.7,29.95,East,88,0.0,0.0,98,0.09,,---,0.20,VWS V14.01,2013-09-24 07:01:00,
2013-09-24 03:06:00,75.2,74.6,29.95,East,88,0.0,0.0,98,0.09,,---,0.20,VWS V14.01,2013-09-24 07:06:00,
2013-09-24 03:11:00,75.4,74.8,29.95,East,88,0.0,0.0,98,0.09,,---,0.20,VWS V14.01,2013-09-24 07:11:00,
2013-09-24 03:15:00,74.8,73.9,29.96,North,357,0.0,3.0,97,0.17,,---,0.17,VWS V15.00,2013-09-24 07:15:00,
2013-09-24 03:16:00,75.4,74.8,29.95,East,88,0.0,0.0,98,0.03,,---,0.20,VWS V14.01,2013-09-24 07:16:00,
2013-09-24 03:21:00,75.5,74.9,29.95,East,88,1.0,1.0,98,0.03,,---,0.20,VWS V14.01,2013-09-24 07:21:00,
2013-09-24 03:26:00,75.5,74.9,29.96,East,88,0.0,1.0,98,0.03,,---,0.20,VWS V14.01,2013-09-24 07:26:00,
2013-09-24 03:30:00,74.8,74.2,29.96,North,357,0.0,1.0,98,0.17,,---,0.17,VWS V15.00,2013-09-24 07:30:00,
2013-09-24 03:31:00,75.5,74.9,29.95,East,88,0.0,0.0,98,0.03,,---,0.20,VWS V14.01,2013-09-24 07:31:00,
2013-09-24 03:36:00,75.5,74.9,29.95,East,88,0.0,1.0,98,0.03,,---,0.20,VWS V14.01,2013-09-24 07:36:00,
2013-09-24 03:41:00,75.5,74.9,29.96,East,88,0.0,1.0,98,0.03,,---,0.20,VWS V14.01,2013-09-24 07:41:00,
2013-09-24 03:45:00,75.1,74.5,29.96,North,358,0.0,0.0,98,0.20,,---,0.20,VWS V15.00,2013-09-24 07:45:00,
2013-09-24 03:46:00,75.6,75.0,29.96,East,88,0.0,0.0,98,0.00,,---,0.20,VWS V14.01,2013-09-24 07:46:00,
2013-09-24 03:51:00,75.6,75.0,29.95,East,88,0.0,1.0,98,0.00,,---,0.20,VWS V14.01,2013-09-24 07:51:00,
2013-09-24 03:56:00,75.6,75.0,29.95,East,88,0.0,1.0,98,0.00,,---,0.20,VWS V14.01,2013-09-24 07:56:00,
2013-09-24 04:00:00,75.3,74.7,29.95,East,88,0.0,1.0,98,0.20,,---,0.20,VWS V15.00,2013-09-24 08:00:00,
2013-09-24 04:02:00,75.6,75.0,29.95,East,88,1.0,1.0,98,0.00,,---,0.20,VWS V14.01,2013-09-24 08:02:00,
2013-09-24 04:07:00,75.6,75.0,29.95,East,88,0.0,1.0,98,0.00,,---,0.20,VWS V14.01,2013-09-24 08:07:00,
2013-09-24 04:12:00,75.5,74.9,29.94,East,88,0.0,1.0,98,0.00,,---,0.20,VWS V14.01,2013-09-24 08:12:00,
2013-09-24 04:15:00,75.4,74.8,29.95,East,88,0.0,1.0,98,0.09,,---,0.20,VWS V15.00,2013-09-24 08:15:00,
2013-09-24 04:17:00,75.5,74.9,29.94,East,86,1.0,1.0,98,0.00,,---,0.20,VWS V14.01,2013-09-24 08:17:00,
2013-09-24 04:22:00,75.4,74.8,29.94,ESE,108,0.0,2.0,98,0.00,,---,0.20,VWS V14.01,2013-09-24 08:22:00,
2013-09-24 04:27:00,75.4,74.8,29.94,East,101,0.0,2.0,98,0.00,,---,0.20,VWS V14.01,2013-09-24 08:27:00,
2013-09-24 04:30:00,75.5,74.9,29.96,East,88,0.0,1.0,98,0.03,,---,0.20,VWS V15.00,2013-09-24 08:30:00,
2013-09-24 04:32:00,75.3,74.7,29.94,ESE,105,1.0,1.0,98,0.00,,---,0.20,VWS V14.01,2013-09-24 08:32:00,
2013-09-24 04:37:00,75.3,74.7,29.94,ESE,103,1.0,1.0,98,0.00,,---,0.20,VWS V14.01,2013-09-24 08:37:00,
2013-09-24 04:42:00,75.3,74.7,29.94,ESE,111,0.0,2.0,98,0.00,,---,0.20,VWS V14.01,2013-09-24 08:42:00,
2013-09-24 04:45:00,75.6,75.0,29.96,East,88,0.0,1.0,98,0.03,,---,0.20,VWS V15.00,2013-09-24 08:45:00,
2013-09-24 04:47:00,75.3,74.7,29.94,East,91,0.0,0.0,98,0.00,,---,0.20,VWS V14.01,2013-09-24 08:47:00,
2013-09-24 04:52:00,75.3,74.7,29.94,East,94,0.0,1.0,98,0.00,,---,0.20,VWS V14.01,2013-09-24 08:52:00,
2013-09-24 04:57:00,75.3,74.7,29.94,East,94,0.0,1.0,98,0.00,,---,0.20,VWS V14.01,2013-09-24 08:57:00,
2013-09-24 05:00:00,75.6,75.0,29.95,East,88,0.0,1.0,98,0.00,,---,0.20,VWS V15.00,2013-09-24 09:00:00,
2013-09-24 05:02:00,75.3,74.7,29.93,East,94,1.0,1.0,98,0.00,,---,0.20,VWS V14.01,2013-09-24 09:02:00,
2013-09-24 05:07:00,75.3,74.7,29.93,East,94,0.0,1.0,98,0.00,,---,0.20,VWS V14.01,2013-09-24 09:07:00,
2013-09-24 05:12:00,75.3,74.7,29.93,East,94,0.0,1.0,98,0.00,,---,0.20,VWS V14.01,2013-09-24 09:12:00,
2013-09-24 05:15:00,75.5,74.9,29.94,East,87,0.0,1.0,98,0.00,,---,0.20,VWS V15.00,2013-09-24 09:15:00,
2013-09-24 05:17:00,75.3,74.7,29.94,East,94,0.0,0.0,98,0.00,,---,0.20,VWS V14.01,2013-09-24 09:17:00,
2013-09-24 05:22:00,75.4,74.8,29.94,East,94,0.0,0.0,98,0.00,,---,0.20,VWS V14.01,2013-09-24 09:22:00,
2013-09-24 05:27:00,75.4,74.8,29.94,East,94,0.0,0.0,98,0.00,,---,0.20,VWS V14.01,2013-09-24 09:27:00,
2013-09-24 05:30:00,75.3,74.7,29.94,East,96,0.0,2.0,98,0.00,,---,0.20,VWS V15.00,2013-09-24 09:30:00,
2013-09-24 05:32:00,75.5,74.9,29.94,East,94,0.0,0.0,98,0.00,,---,0.20,VWS V14.01,2013-09-24 09:32:00,
2013-09-24 05:37:00,75.5,74.9,29.94,East,94,0.0,0.0,98,0.00,,---,0.20,VWS V14.01,2013-09-24 09:37:00,
2013-09-24 05:42:00,75.5,74.9,29.94,East,94,0.0,0.0,98,0.00,,---,0.20,VWS V14.01,2013-09-24 09:42:00,
2013-09-24 05:45:00,75.3,74.7,29.94,East,91,0.0,2.0,98,0.00,,---,0.20,VWS V15.00,2013-09-24 09:45:00,
2013-09-24 05:47:00,75.5,74.9,29.94,East,94,0.0,0.0,98,0.00,,---,0.20,VWS V14.01,2013-09-24 09:47:00,
2013-09-24 05:52:00,75.5,74.9,29.94,East,94,0.0,0.0,98,0.00,,---,0.20,VWS V14.01,2013-09-24 09:52:00,
2013-09-24 05:57:00,75.5,74.9,29.94,East,94,0.0,0.0,98,0.00,,---,0.20,VWS V14.01,2013-09-24 09:57:00,
2013-09-24 06:00:00,75.3,74.7,29.93,East,94,0.0,1.0,98,0.00,,---,0.20,VWS V15.00,2013-09-24 10:00:00,
2013-09-24 06:02:00,75.6,75.0,29.94,East,94,0.0,0.0,98,0.00,,---,0.20,VWS V14.01,2013-09-24 10:02:00,
2013-09-24 06:07:00,75.6,75.0,29.94,East,94,0.0,0.0,98,0.00,,---,0.20,VWS V14.01,2013-09-24 10:07:00,
2013-09-24 06:12:00,75.5,74.9,29.93,East,94,0.0,1.0,98,0.00,,---,0.20,VWS V14.01,2013-09-24 10:12:00,
2013-09-24 06:15:00,75.3,74.7,29.94,East,94,0.0,1.0,98,0.00,,---,0.20,VWS V15.00,2013-09-24 10:15:00,
2013-09-24 06:17:00,75.5,74.9,29.94,East,94,0.0,0.0,98,0.00,,---,0.20,VWS V14.01,2013-09-24 10:17:00,
2013-09-24 06:22:00,75.5,74.9,29.94,East,94,0.0,0.0,98,0.00,,---,0.20,VWS V14.01,2013-09-24 10:22:00,
2013-09-24 06:27:00,75.5,74.9,29.94,East,94,0.0,0.0,98,0.00,,---,0.20,VWS V14.01,2013-09-24 10:27:00,
2013-09-24 06:30:00,75.5,74.9,29.94,East,94,0.0,0.0,98,0.00,,---,0.20,VWS V15.00,2013-09-24 10:30:00,
2013-09-24 06:32:00,75.5,74.9,29.94,East,94,0.0,0.0,98,0.00,,---,0.20,VWS V14.01,2013-09-24 10:32:00,
2013-09-24 06:37:00,75.4,74.8,29.94,East,94,0.0,0.0,98,0.00,,---,0.20,VWS V14.01,2013-09-24 10:37:00,
2013-09-24 06:42:00,75.5,74.9,29.94,East,94,0.0,0.0,98,0.00,,---,0.20,VWS V14.01,2013-09-24 10:42:00,
2013-09-24 06:45:00,75.5,74.9,29.94,East,94,0.0,0.0,98,0.00,,---,0.20,VWS V15.00,2013-09-24 10:45:00,
2013-09-24 06:47:00,75.5,74.9,29.94,East,94,0.0,0.0,98,0.00,,---,0.20,VWS V14.01,2013-09-24 10:47:00,
2013-09-24 06:52:00,75.5,75.2,29.94,East,94,0.0,0.0,99,0.00,,---,0.20,VWS V14.01,2013-09-24 10:52:00,
2013-09-24 06:57:00,75.6,75.3,29.94,East,94,0.0,0.0,99,0.00,,---,0.20,VWS V14.01,2013-09-24 10:57:00,
2013-09-24 07:00:00,75.5,74.9,29.93,East,94,0.0,0.0,98,0.00,,---,0.20,VWS V15.00,2013-09-24 11:00:00,
2013-09-24 07:02:00,75.6,75.0,29.94,East,94,0.0,0.0,98,0.00,,---,0.20,VWS V14.01,2013-09-24 11:02:00,
2013-09-24 07:07:00,75.7,75.4,29.94,East,94,0.0,0.0,99,0.00,,---,0.20,VWS V14.01,2013-09-24 11:07:00,
2013-09-24 07:12:00,75.8,75.5,29.94,East,94,0.0,0.0,99,0.00,,---,0.20,VWS V14.01,2013-09-24 11:12:00,
2013-09-24 07:15:00,75.5,74.9,29.94,East,94,0.0,1.0,98,0.00,,---,0.20,VWS V15.00,2013-09-24 11:15:00,
2013-09-24 07:17:00,75.8,75.5,29.94,East,94,0.0,0.0,99,0.00,,---,0.20,VWS V14.01,2013-09-24 11:17:00,
2013-09-24 07:23:00,75.9,75.6,29.94,East,94,0.0,0.0,99,0.00,,---,0.20,VWS V14.01,2013-09-24 11:23:00,
2013-09-24 07:28:00,76.0,75.7,29.94,East,94,0.0,0.0,99,0.01,,---,0.21,VWS V14.01,2013-09-24 11:28:00,
2013-09-24 07:30:00,75.4,74.8,29.94,East,94,0.0,0.0,98,0.00,,---,0.20,VWS V15.00,2013-09-24 11:30:00,
2013-09-24 07:33:00,76.1,75.8,29.94,East,94,0.0,0.0,99,0.01,,---,0.21,VWS V14.01,2013-09-24 11:33:00,
2013-09-24 07:38:00,76.2,75.9,29.94,East,94,0.0,0.0,99,0.01,,---,0.21,VWS V14.01,2013-09-24 11:38:00,
2013-09-24 07:43:00,76.3,76.0,29.95,East,94,0.0,1.0,99,0.01,,---,0.21,VWS V14.01,2013-09-24 11:43:00,
2013-09-24 07:45:00,75.5,74.9,29.94,East,94,0.0,0.0,98,0.00,,---,0.20,VWS V15.00,2013-09-24 11:45:00,
2013-09-24 07:48:00,76.6,76.3,29.95,East,94,0.0,0.0,99,0.01,,---,0.21,VWS V14.01,2013-09-24 11:48:00,
2013-09-24 07:53:00,77.2,76.9,29.95,East,94,0.0,0.0,99,0.01,,---,0.21,VWS V14.01,2013-09-24 11:53:00,
2013-09-24 07:58:00,77.8,77.5,29.95,East,94,0.0,0.0,99,0.01,,---,0.21,VWS V14.01,2013-09-24 11:58:00,
2013-09-24 08:00:00,75.6,75.0,29.94,East,94,0.0,0.0,98,0.00,,---,0.20,VWS V15.00,2013-09-24 12:00:00,
2013-09-24 08:03:00,78.0,77.7,29.95,East,94,0.0,0.0,99,0.01,,---,0.21,VWS V14.01,2013-09-24 12:03:00,
2013-09-24 08:08:00,78.4,77.8,29.95,East,94,0.0,0.0,98,0.01,,---,0.21,VWS V14.01,2013-09-24 12:08:00,
2013-09-24 08:13:00,78.8,78.2,29.95,East,94,0.0,1.0,98,0.01,,---,0.21,VWS V14.01,2013-09-24 12:13:00,
2013-09-24 08:15:00,75.8,75.5,29.94,East,94,0.0,0.0,99,0.00,,---,0.20,VWS V15.00,2013-09-24 12:15:00,
2013-09-24 08:19:00,79.5,78.6,29.95,East,94,0.0,1.0,97,0.01,,---,0.21,VWS V14.01,2013-09-24 12:19:00,
2013-09-24 08:24:00,79.9,78.7,29.95,SSW,193,0.0,1.0,96,0.01,,---,0.21,VWS V14.01,2013-09-24 12:24:00,
2013-09-24 08:29:00,80.6,79.0,29.96,SSE,160,0.0,2.0,95,0.01,,---,0.21,VWS V14.01,2013-09-24 12:29:00,
2013-09-24 08:30:00,76.1,75.8,29.94,East,94,0.0,0.0,99,0.01,,---,0.21,VWS V15.00,2013-09-24 12:30:00,
2013-09-24 08:34:00,81.6,79.7,29.96,SE,136,0.0,1.0,94,0.00,,---,0.21,VWS V14.01,2013-09-24 12:34:00,
2013-09-24 08:39:00,82.3,79.4,29.96,ESE,119,0.0,2.0,91,0.00,,---,0.21,VWS V14.01,2013-09-24 12:39:00,
2013-09-24 08:44:00,82.9,80.0,29.96,SE,141,0.0,2.0,91,0.00,,---,0.21,VWS V14.01,2013-09-24 12:44:00,
2013-09-24 08:45:00,76.5,76.2,29.95,East,94,0.0,1.0,99,0.01,,---,0.21,VWS V15.00,2013-09-24 12:45:00,
2013-09-24 08:49:00,83.9,81.0,29.97,SE,141,0.0,0.0,91,0.00,,---,0.21,VWS V14.01,2013-09-24 12:49:00,
2013-09-24 08:54:00,84.6,81.3,29.97,SSW,208,0.0,2.0,90,0.00,,---,0.21,VWS V14.01,2013-09-24 12:54:00,
2013-09-24 08:59:00,84.9,81.6,29.97,NW,325,0.0,3.0,90,0.00,,---,0.21,VWS V14.01,2013-09-24 12:59:00,
2013-09-24 09:00:00,78.1,77.8,29.95,East,94,0.0,0.0,99,0.01,,---,0.21,VWS V15.00,2013-09-24 13:00:00,
2013-09-24 09:04:00,85.5,81.9,29.97,SE,128,0.0,4.0,89,0.00,,---,0.21,VWS V14.01,2013-09-24 13:04:00,
2013-09-24 09:09:00,86.1,81.4,29.97,SE,145,0.0,4.0,86,0.00,,---,0.21,VWS V14.01,2013-09-24 13:09:00,
2013-09-24 09:14:00,85.8,81.1,29.97,South,184,0.0,5.0,86,0.00,,---,0.21,VWS V14.01,2013-09-24 13:14:00,
2013-09-24 09:15:00,79.0,78.1,29.95,East,94,0.0,1.0,97,0.01,,---,0.21,VWS V15.00,2013-09-24 13:15:00,
2013-09-24 09:19:00,85.3,80.6,29.97,SSW,192,1.0,5.0,86,0.00,,---,0.21,VWS V14.01,2013-09-24 13:19:00,
2013-09-24 09:24:00,84.9,80.9,29.98,West,281,0.0,5.0,88,0.00,,---,0.21,VWS V14.01,2013-09-24 13:24:00,
2013-09-24 09:30:00,84.6,80.7,29.97,NW,307,0.0,5.0,88,0.00,,---,0.21,VWS V14.01,2013-09-24 13:30:00,
2013-09-24 09:35:00,84.5,80.6,29.97,NNW,340,0.0,2.0,88,0.00,,---,0.21,VWS V14.01,2013-09-24 13:35:00,
2013-09-24 09:40:00,84.5,81.2,29.97,WNW,298,0.0,3.0,90,0.00,,---,0.21,VWS V14.01,2013-09-24 13:40:00,
2013-09-24 09:45:00,84.9,80.9,29.97,WSW,253,0.0,3.0,88,0.00,,---,0.21,VWS V14.01,2013-09-24 13:45:00,
2013-09-24 09:50:00,85.7,82.1,29.98,NNW,348,0.0,1.0,89,0.00,,---,0.21,VWS V14.01,2013-09-24 13:50:00,
2013-09-24 09:55:00,86.6,81.9,29.98,WNW,283,1.0,4.0,86,0.00,,---,0.21,VWS V14.01,2013-09-24 13:55:00,
2013-09-24 10:00:00,87.2,81.8,29.98,NNW,327,1.0,6.0,84,0.00,,---,0.21,VWS V14.01,2013-09-24 14:00:00,
2013-09-24 10:05:00,87.8,81.6,29.98,SE,129,1.0,4.0,82,0.00,,---,0.21,VWS V14.01,2013-09-24 14:05:00,
2013-09-24 10:10:00,88.0,81.8,29.98,NNE,18,0.0,6.0,82,0.00,,---,0.21,VWS V14.01,2013-09-24 14:10:00,
2013-09-24 10:15:00,88.4,81.8,29.98,SE,143,1.0,6.0,81,0.00,,---,0.21,VWS V14.01,2013-09-24 14:15:00,
2013-09-24 10:20:00,88.4,82.2,29.97,WNW,291,0.0,2.0,82,0.00,,---,0.21,VWS V14.01,2013-09-24 14:20:00,
2013-09-24 10:25:00,88.1,81.5,29.97,NW,305,0.0,5.0,81,0.00,,---,0.21,VWS V14.01,2013-09-24 14:25:00,
2013-09-24 10:30:00,87.5,80.9,29.97,NW,306,1.0,7.0,81,0.00,,---,0.21,VWS V14.01,2013-09-24 14:30:00,
2013-09-24 10:35:00,87.2,80.7,29.97,WNW,288,1.0,5.0,81,0.00,,---,0.21,VWS V14.01,2013-09-24 14:35:00,
2013-09-24 10:40:00,87.1,80.9,29.98,SW,228,0.0,5.0,82,0.00,,---,0.21,VWS V14.01,2013-09-24 14:40:00,
2013-09-24 10:45:00,87.2,81.0,29.98,West,278,0.0,5.0,82,0.00,,---,0.21,VWS V14.01,2013-09-24 14:45:00,
2013-09-24 10:50:00,87.1,80.9,29.97,WNW,282,0.0,4.0,82,0.00,,---,0.21,VWS V14.01,2013-09-24 14:50:00,
2013-09-24 10:55:00,87.0,80.5,29.97,SE,144,1.0,4.0,81,0.00,,---,0.21,VWS V14.01,2013-09-24 14:55:00,
2013-09-24 11:00:00,87.6,81.1,29.97,West,277,0.0,4.0,81,0.00,,---,0.21,VWS V14.01,2013-09-24 15:00:00,
2013-09-24 11:05:00,88.8,81.4,29.98,WNW,290,0.0,4.0,79,0.00,,---,0.21,VWS V14.01,2013-09-24 15:05:00,
2013-09-24 11:10:00,89.6,81.0,29.97,ENE,68,1.0,6.0,76,0.00,,---,0.21,VWS V14.01,2013-09-24 15:10:00,
2013-09-24 11:15:00,90.0,80.6,29.98,NE,56,1.0,7.0,74,0.00,,---,0.21,VWS V14.01,2013-09-24 15:15:00,
2013-09-24 11:20:00,90.3,80.9,29.97,SSE,153,2.0,5.0,74,0.00,,---,0.21,VWS V14.01,2013-09-24 15:20:00,
2013-09-24 11:25:00,90.6,79.9,29.97,SW,216,2.0,5.0,71,0.00,,---,0.21,VWS V14.01,2013-09-24 15:25:00,
2013-09-24 11:30:00,90.3,79.6,29.97,SW,236,0.0,8.0,71,0.00,,---,0.21,VWS V14.01,2013-09-24 15:30:00,
2013-09-24 11:35:00,90.7,80.9,29.97,West,275,0.0,4.0,73,0.00,,---,0.21,VWS V14.01,2013-09-24 15:35:00,
2013-09-24 11:40:00,90.7,80.0,29.97,SE,127,2.0,5.0,71,0.00,,---,0.21,VWS V14.01,2013-09-24 15:40:00,
2013-09-24 11:45:00,91.0,78.5,29.97,SW,223,2.0,5.0,67,0.00,,---,0.21,VWS V14.01,2013-09-24 15:45:00,
2013-09-24 11:50:00,91.3,79.3,29.97,SW,236,2.0,6.0,68,0.00,,---,0.21,VWS V14.01,2013-09-24 15:50:00,
2013-09-24 11:55:00,91.3,76.9,29.96,WNW,287,2.0,9.0,63,0.00,,---,0.21,VWS V14.01,2013-09-24 15:55:00,
2013-09-24 12:00:00,91.5,78.1,29.96,WSW,238,0.0,9.0,65,0.00,,---,0.21,VWS V14.01,2013-09-24 16:00:00,
2013-09-24 12:05:00,91.9,78.0,29.96,SE,143,4.0,7.0,64,0.00,,---,0.21,VWS V14.01,2013-09-24 16:05:00,
2013-09-24 12:10:00,92.3,79.3,29.96,SE,135,0.0,8.0,66,0.00,,---,0.21,VWS V14.01,2013-09-24 16:10:00,
2013-09-24 12:15:00,92.7,78.3,29.95,West,276,3.0,8.0,63,0.00,,---,0.21,VWS V14.01,2013-09-24 16:15:00,
2013-09-24 12:20:00,92.6,78.7,29.95,SSW,205,0.0,6.0,64,0.00,,---,0.21,VWS V14.01,2013-09-24 16:20:00,
2013-09-24 12:25:00,92.7,77.8,29.95,SSE,154,2.0,7.0,62,0.00,,---,0.21,VWS V14.01,2013-09-24 16:25:00,
2013-09-24 12:30:00,90.3,79.6,29.97,WNW,297,1.0,8.0,71,0.00,,---,0.21,VWS V15.00,2013-09-24 16:30:00,
2013-09-24 12:31:00,92.9,76.5,29.95,WSW,257,3.0,7.0,59,0.00,,---,0.21,VWS V14.01,2013-09-24 16:31:00,
2013-09-24 12:36:00,93.2,77.8,29.95,ENE,68,1.0,8.0,61,0.00,,---,0.21,VWS V14.01,2013-09-24 16:36:00,
2013-09-24 12:41:00,93.6,77.6,29.94,SSE,150,6.0,8.0,60,0.00,,---,0.21,VWS V14.01,2013-09-24 16:41:00,
2013-09-24 12:45:00,91.0,78.5,29.97,WSW,238,0.0,5.0,67,0.00,,---,0.21,VWS V15.00,2013-09-24 16:45:00,
2013-09-24 12:46:00,93.8,77.8,29.94,SW,217,1.0,8.0,60,0.00,,---,0.21,VWS V14.01,2013-09-24 16:46:00,
2013-09-24 12:51:00,93.7,78.7,29.94,West,269,1.0,9.0,62,0.00,,---,0.21,VWS V14.01,2013-09-24 16:51:00,
2013-09-24 12:56:00,93.5,77.5,29.93,SE,125,1.0,9.0,60,0.00,,---,0.21,VWS V14.01,2013-09-24 16:56:00,
2013-09-24 13:00:00,91.6,78.2,29.96,South,178,0.0,9.0,65,0.00,,---,0.21,VWS V15.00,2013-09-24 17:00:00,
2013-09-24 13:01:00,93.9,77.9,29.93,West,272,1.0,9.0,60,0.00,,---,0.21,VWS V14.01,2013-09-24 17:01:00,
2013-09-24 13:06:00,94.3,76.7,29.93,WSW,243,2.0,6.0,57,0.00,,---,0.21,VWS V14.01,2013-09-24 17:06:00,
2013-09-24 13:11:00,94.1,77.6,29.93,SW,223,1.0,7.0,59,0.00,,---,0.21,VWS V14.01,2013-09-24 17:11:00,
2013-09-24 13:15:00,92.7,77.3,29.95,SSW,212,6.0,10.0,61,0.00,,---,0.21,VWS V15.00,2013-09-24 17:15:00,
2013-09-24 13:16:00,94.0,77.5,29.92,SSW,193,2.0,7.0,59,0.00,,---,0.21,VWS V14.01,2013-09-24 17:16:00,
2013-09-24 13:21:00,94.4,77.9,29.92,SSW,203,0.0,6.0,59,0.00,,---,0.21,VWS V14.01,2013-09-24 17:21:00,
2013-09-24 13:26:00,94.7,77.6,29.92,SW,214,1.0,6.0,58,0.00,,---,0.21,VWS V14.01,2013-09-24 17:26:00,
2013-09-24 13:30:00,92.9,76.5,29.95,South,182,1.0,7.0,59,0.00,,---,0.21,VWS V15.00,2013-09-24 17:30:00,
2013-09-24 13:31:00,93.6,77.6,29.92,SW,222,1.0,6.0,60,0.00,,---,0.21,VWS V14.01,2013-09-24 17:31:00,
2013-09-24 13:36:00,92.7,77.3,29.92,West,273,2.0,7.0,61,0.00,,---,0.21,VWS V14.01,2013-09-24 17:36:00,
2013-09-24 13:41:00,92.7,77.8,29.91,NW,304,2.0,7.0,62,0.00,,---,0.21,VWS V14.01,2013-09-24 17:41:00,
2013-09-24 13:45:00,93.8,77.8,29.94,South,191,3.0,8.0,60,0.00,,---,0.21,VWS V15.00,2013-09-24 17:45:00,
2013-09-24 13:46:00,92.1,76.7,29.91,West,268,2.0,11.0,61,0.00,,---,0.21,VWS V14.01,2013-09-24 17:46:00,
2013-09-24 13:51:00,91.8,76.4,29.91,West,259,4.0,10.0,61,0.00,,---,0.21,VWS V14.01,2013-09-24 17:51:00,
2013-09-24 13:56:00,91.9,77.5,29.91,West,269,1.0,10.0,63,0.00,,---,0.21,VWS V14.01,2013-09-24 17:56:00,
2013-09-24 14:00:00,94.0,78.5,29.93,East,79,2.0,9.0,61,0.00,,---,0.21,VWS V15.00,2013-09-24 18:00:00,
2013-09-24 14:01:00,91.8,77.4,29.91,WSW,250,0.0,10.0,63,0.00,,---,0.21,VWS V14.01,2013-09-24 18:01:00,
2013-09-24 14:06:00,91.8,76.4,29.91,SSW,202,2.0,9.0,61,0.00,,---,0.21,VWS V14.01,2013-09-24 18:06:00,
2013-09-24 14:11:00,91.5,77.1,29.91,WSW,251,0.0,9.0,63,0.00,,---,0.21,VWS V14.01,2013-09-24 18:11:00,
2013-09-24 14:15:00,94.0,77.5,29.92,SSW,207,0.0,7.0,59,0.00,,---,0.21,VWS V15.00,2013-09-24 18:15:00,
2013-09-24 14:16:00,91.4,77.0,29.91,WSW,241,8.0,11.0,63,0.00,,---,0.21,VWS V14.01,2013-09-24 18:16:00,
2013-09-24 14:21:00,91.1,76.8,29.90,ESE,115,2.0,8.0,63,0.00,,---,0.21,VWS V14.01,2013-09-24 18:21:00,
2013-09-24 14:26:00,91.0,75.7,29.90,NW,304,5.0,11.0,61,0.00,,---,0.21,VWS V14.01,2013-09-24 18:26:00,
2013-09-24 14:30:00,93.5,77.5,29.92,SW,222,0.0,6.0,60,0.00,,---,0.21,VWS V15.00,2013-09-24 18:30:00,
2013-09-24 14:31:00,90.8,75.5,29.90,East,100,1.0,1.0,61,0.00,,---,0.21,VWS V14.01,2013-09-24 18:31:00,
2013-09-24 14:36:00,90.6,76.3,29.90,WNW,298,0.0,7.0,63,0.00,,---,0.21,VWS V14.01,2013-09-24 18:36:00,
2013-09-24 14:41:00,90.7,76.8,29.90,West,265,0.0,7.0,64,0.00,,---,0.21,VWS V14.01,2013-09-24 18:41:00,
2013-09-24 14:45:00,92.1,76.7,29.91,SW,224,4.0,11.0,61,0.00,,---,0.21,VWS V15.00,2013-09-24 18:45:00,
2013-09-24 14:46:00,90.9,77.0,29.90,WNW,292,2.0,3.0,64,0.00,,---,0.21,VWS V14.01,2013-09-24 18:46:00,
2013-09-24 14:51:00,90.6,76.3,29.90,NNW,342,1.0,8.0,63,0.00,,---,0.21,VWS V14.01,2013-09-24 18:51:00,
2013-09-24 14:56:00,90.4,76.1,29.90,SW,229,1.0,8.0,63,0.00,,---,0.21,VWS V14.01,2013-09-24 18:56:00,
2013-09-24 15:00:00,91.8,77.4,29.91,WSW,250,0.0,10.0,63,0.00,,---,0.21,VWS V15.00,2013-09-24 19:00:00,
2013-09-24 15:01:00,90.2,75.9,29.90,SW,223,0.0,0.0,63,0.00,,---,0.21,VWS V14.01,2013-09-24 19:01:00,
2013-09-24 15:06:00,90.2,75.9,29.90,WNW,288,1.0,5.0,63,0.00,,---,0.21,VWS V14.01,2013-09-24 19:06:00,
2013-09-24 15:11:00,90.2,76.4,29.90,South,186,2.0,5.0,64,0.00,,---,0.21,VWS V14.01,2013-09-24 19:11:00,
2013-09-24 15:15:00,91.4,77.0,29.91,WSW,241,8.0,11.0,63,0.00,,---,0.21,VWS V15.00,2013-09-24 19:15:00,
2013-09-24 15:16:00,90.2,75.9,29.90,East,79,1.0,2.0,63,0.00,,---,0.21,VWS V14.01,2013-09-24 19:16:00,
2013-09-24 15:21:00,90.2,75.9,29.90,South,190,1.0,5.0,63,0.00,,---,0.21,VWS V14.01,2013-09-24 19:21:00,
2013-09-24 15:26:00,90.3,76.0,29.90,ESE,105,1.0,6.0,63,0.00,,---,0.21,VWS V14.01,2013-09-24 19:26:00,
2013-09-24 15:30:00,90.8,75.5,29.90,East,100,0.0,11.0,61,0.00,,---,0.21,VWS V15.00,2013-09-24 19:30:00,
2013-09-24 15:32:00,90.3,76.9,29.90,WSW,251,2.0,3.0,65,0.00,,---,0.21,VWS V14.01,2013-09-24 19:32:00,
2013-09-24 15:37:00,90.3,76.5,29.89,West,268,1.0,10.0,64,0.00,,---,0.21,VWS V14.01,2013-09-24 19:37:00,
2013-09-24 15:42:00,90.4,77.0,29.90,NW,316,0.0,10.0,65,0.00,,---,0.21,VWS V14.01,2013-09-24 19:42:00,
2013-09-24 15:45:00,90.9,77.0,29.90,SW,233,1.0,7.0,64,0.00,,---,0.21,VWS V15.00,2013-09-24 19:45:00,
2013-09-24 15:47:00,90.4,76.1,29.90,WNW,283,5.0,10.0,63,0.00,,---,0.21,VWS V14.01,2013-09-24 19:47:00,
2013-09-24 15:52:00,90.3,76.5,29.89,WNW,293,0.0,10.0,64,0.00,,---,0.21,VWS V14.01,2013-09-24 19:52:00,
2013-09-24 15:57:00,90.2,76.4,29.89,WNW,295,3.0,10.0,64,0.00,,---,0.21,VWS V14.01,2013-09-24 19:57:00,
2013-09-24 16:00:00,90.3,76.0,29.90,SW,221,0.0,8.0,63,0.00,,---,0.21,VWS V15.00,2013-09-24 20:00:00,
2013-09-24 16:02:00,90.2,76.4,29.89,West,269,4.0,5.0,64,0.00,,---,0.21,VWS V14.01,2013-09-24 20:02:00,
2013-09-24 16:07:00,90.2,76.4,29.89,NW,314,2.0,6.0,64,0.00,,---,0.21,VWS V14.01,2013-09-24 20:07:00,
2013-09-24 16:12:00,90.2,76.8,29.89,SW,232,0.0,6.0,65,0.00,,---,0.21,VWS V14.01,2013-09-24 20:12:00,
2013-09-24 16:15:00,90.2,76.4,29.90,SW,226,1.0,5.0,64,0.00,,---,0.21,VWS V15.00,2013-09-24 20:15:00,
2013-09-24 16:17:00,90.3,77.9,29.89,NW,318,2.0,4.0,67,0.00,,---,0.21,VWS V14.01,2013-09-24 20:17:00,
2013-09-24 16:22:00,90.3,77.4,29.89,NNW,329,2.0,4.0,66,0.00,,---,0.21,VWS V14.01,2013-09-24 20:22:00,
2013-09-24 16:27:00,90.1,77.2,29.89,WNW,289,1.0,8.0,66,0.00,,---,0.21,VWS V14.01,2013-09-24 20:27:00,
2013-09-24 16:30:00,90.3,76.9,29.89,West,269,1.0,6.0,65,0.00,,---,0.21,VWS V15.00,2013-09-24 20:30:00,
2013-09-24 16:32:00,89.9,77.0,29.89,West,281,3.0,7.0,66,0.00,,---,0.21,VWS V14.01,2013-09-24 20:32:00,
2013-09-24 16:37:00,89.9,78.4,29.89,NW,309,3.0,7.0,69,0.00,,---,0.21,VWS V14.01,2013-09-24 20:37:00,
2013-09-24 16:42:00,89.9,77.5,29.89,NNW,335,2.0,9.0,67,0.00,,---,0.21,VWS V14.01,2013-09-24 20:42:00,
2013-09-24 16:45:00,90.5,76.7,29.90,West,274,4.0,10.0,64,0.00,,---,0.21,VWS V15.00,2013-09-24 20:45:00,
2013-09-24 16:47:00,89.8,76.5,29.88,WSW,238,4.0,4.0,65,0.00,,---,0.21,VWS V14.01,2013-09-24 20:47:00,
2013-09-24 16:52:00,89.7,76.4,29.88,WNW,290,2.0,9.0,65,0.00,,---,0.21,VWS V14.01,2013-09-24 20:52:00,
2013-09-24 16:57:00,89.7,77.3,29.89,WSW,240,0.0,9.0,67,0.00,,---,0.21,VWS V14.01,2013-09-24 20:57:00,
2013-09-24 17:00:00,90.1,75.8,29.89,WNW,283,1.0,10.0,63,0.00,,---,0.21,VWS V15.00,2013-09-24 21:00:00,
2013-09-24 17:02:00,89.4,77.4,29.89,WNW,302,0.0,4.0,68,0.00,,---,0.21,VWS V14.01,2013-09-24 21:02:00,
2013-09-24 17:07:00,89.1,76.3,29.89,ENE,67,1.0,5.0,66,0.00,,---,0.21,VWS V14.01,2013-09-24 21:07:00,
2013-09-24 17:12:00,88.7,75.9,29.90,NW,324,0.0,5.0,66,0.00,,---,0.21,VWS V14.01,2013-09-24 21:12:00,
2013-09-24 17:15:00,90.3,77.9,29.89,West,278,1.0,8.0,67,0.00,,---,0.21,VWS V15.00,2013-09-24 21:15:00,
2013-09-24 17:17:00,88.4,76.1,29.89,NW,311,0.0,2.0,67,0.00,,---,0.21,VWS V14.01,2013-09-24 21:17:00,
2013-09-24 17:22:00,88.3,76.0,29.89,West,269,0.0,7.0,67,0.00,,---,0.21,VWS V14.01,2013-09-24 21:22:00,
2013-09-24 17:27:00,88.1,75.8,29.90,West,281,1.0,7.0,67,0.00,,---,0.21,VWS V14.01,2013-09-24 21:27:00,
2013-09-24 17:30:00,89.9,77.0,29.89,West,281,1.0,8.0,66,0.00,,---,0.21,VWS V15.00,2013-09-24 21:30:00,
2013-09-24 17:32:00,87.7,74.9,29.90,WNW,296,1.0,5.0,66,0.00,,---,0.21,VWS V14.01,2013-09-24 21:32:00,
2013-09-24 17:37:00,87.3,75.0,29.90,SW,233,1.0,13.0,67,0.00,,---,0.21,VWS V14.01,2013-09-24 21:37:00,
2013-09-24 17:42:00,87.0,75.6,29.90,ESE,122,1.0,13.0,69,0.00,,---,0.21,VWS V14.01,2013-09-24 21:42:00,
2013-09-24 17:45:00,89.8,76.5,29.88,WSW,250,1.0,12.0,65,0.00,,---,0.21,VWS V15.00,2013-09-24 21:45:00,
2013-09-24 17:47:00,86.6,75.2,29.90,South,181,1.0,4.0,69,0.00,,---,0.21,VWS V14.01,2013-09-24 21:47:00,
2013-09-24 17:52:00,86.3,75.4,29.89,SW,231,5.0,7.0,70,0.00,,---,0.21,VWS V14.01,2013-09-24 21:52:00,
2013-09-24 17:57:00,85.9,75.0,29.90,WSW,245,4.0,7.0,70,0.00,,---,0.21,VWS V14.01,2013-09-24 21:57:00,
2013-09-24 18:00:00,89.4,77.4,29.89,WNW,295,0.0,9.0,68,0.00,,---,0.21,VWS V15.00,2013-09-24 22:00:00,
2013-09-24 18:02:00,85.7,74.8,29.90,ESE,106,0.0,1.0,70,0.00,,---,0.21,VWS V14.01,2013-09-24 22:02:00,
2013-09-24 18:07:00,85.4,74.5,29.89,West,264,9.0,9.0,70,0.00,,---,0.21,VWS V14.01,2013-09-24 22:07:00,
2013-09-24 18:12:00,85.3,74.4,29.91,West,272,9.0,12.0,70,0.00,,---,0.21,VWS V14.01,2013-09-24 22:12:00,
2013-09-24 18:15:00,88.4,75.6,29.89,NNW,346,2.0,5.0,66,0.00,,---,0.21,VWS V15.00,2013-09-24 22:15:00,
2013-09-24 18:17:00,84.0,73.6,29.91,NW,309,2.0,8.0,71,0.00,,---,0.21,VWS V14.01,2013-09-24 22:17:00,
2013-09-24 18:22:00,82.7,73.6,29.92,NW,306,3.0,8.0,74,0.00,,---,0.21,VWS V14.01,2013-09-24 22:22:00,
2013-09-24 18:27:00,81.9,74.0,29.92,NW,313,2.0,8.0,77,0.00,,---,0.21,VWS V14.01,2013-09-24 22:27:00,
2013-09-24 18:30:00,87.8,75.5,29.90,NNW,334,2.0,10.0,67,0.00,,---,0.21,VWS V15.00,2013-09-24 22:30:00,
2013-09-24 18:32:00,80.7,74.3,29.92,NNW,327,1.0,5.0,81,0.00,,---,0.21,VWS V14.01,2013-09-24 22:32:00,
2013-09-24 18:37:00,79.9,74.3,29.92,WNW,295,0.0,5.0,83,0.00,,---,0.21,VWS V14.01,2013-09-24 22:37:00,
2013-09-24 18:42:00,79.4,74.2,29.91,NW,320,2.0,5.0,84,0.00,,---,0.21,VWS V14.01,2013-09-24 22:42:00,
2013-09-24 18:45:00,86.7,75.3,29.90,SW,231,4.0,13.0,69,0.00,,---,0.21,VWS V15.00,2013-09-24 22:45:00,
2013-09-24 18:47:00,79.2,73.6,29.91,WNW,295,0.0,3.0,83,0.00,,---,0.21,VWS V14.01,2013-09-24 22:47:00,
2013-09-24 18:53:00,79.3,74.1,29.91,SW,230,2.0,3.0,84,0.00,,---,0.21,VWS V14.01,2013-09-24 22:53:00,
2013-09-24 18:58:00,79.3,74.1,29.91,WNW,290,0.0,4.0,84,0.00,,---,0.21,VWS V14.01,2013-09-24 22:58:00,
2013-09-24 19:00:00,85.7,74.8,29.90,West,277,0.0,10.0,70,0.00,,---,0.21,VWS V15.00,2013-09-24 23:00:00,
2013-09-24 19:03:00,79.3,74.1,29.91,WNW,295,0.0,3.0,84,0.00,,---,0.21,VWS V14.01,2013-09-24 23:03:00,
2013-09-24 19:08:00,79.3,74.1,29.90,WSW,243,0.0,3.0,84,0.00,,---,0.21,VWS V14.01,2013-09-24 23:08:00,
2013-09-24 19:13:00,79.3,74.1,29.90,SW,235,1.0,3.0,84,0.00,,---,0.21,VWS V14.01,2013-09-24 23:13:00,
2013-09-24 19:15:00,84.4,73.6,29.91,West,271,3.0,12.0,70,0.00,,---,0.21,VWS V15.00,2013-09-24 23:15:00,
2013-09-24 19:18:00,79.3,74.1,29.89,SSW,212,1.0,3.0,84,0.00,,---,0.21,VWS V14.01,2013-09-24 23:18:00,
2013-09-24 19:23:00,79.2,73.9,29.89,SSE,155,0.0,6.0,84,0.00,,---,0.21,VWS V14.01,2013-09-24 23:23:00,
2013-09-24 19:28:00,79.2,73.9,29.89,SW,233,0.0,7.0,84,0.00,,---,0.21,VWS V14.01,2013-09-24 23:28:00,
2013-09-24 19:30:00,81.0,74.2,29.92,NW,309,2.0,8.0,80,0.00,,---,0.21,VWS V15.00,2013-09-24 23:30:00,
2013-09-24 19:33:00,79.2,73.9,29.88,SSW,203,2.0,2.0,84,0.00,,---,0.21,VWS V14.01,2013-09-24 23:33:00,
2013-09-24 19:38:00,79.1,73.8,29.88,SSW,205,0.0,2.0,84,0.00,,---,0.21,VWS V14.01,2013-09-24 23:38:00,
2013-09-24 19:43:00,79.1,73.8,29.89,West,266,0.0,2.0,84,0.00,,---,0.21,VWS V14.01,2013-09-24 23:43:00,
2013-09-24 19:45:00,79.3,73.7,29.91,WNW,282,2.0,5.0,83,0.00,,---,0.21,VWS V15.00,2013-09-24 23:45:00,
2013-09-24 19:48:00,79.2,73.9,29.90,WNW,283,2.0,3.0,84,0.00,,---,0.21,VWS V14.01,2013-09-24 23:48:00,
2013-09-24 19:53:00,79.5,74.2,29.90,WNW,297,0.0,3.0,84,0.00,,---,0.21,VWS V14.01,2013-09-24 23:53:00,
2013-09-24 19:58:00,79.6,74.7,29.90,West,278,0.0,3.0,85,0.00,,---,0.21,VWS V14.01,2013-09-24 23:58:00,
2013-09-24 20:00:00,79.3,74.1,29.91,West,265,3.0,4.0,84,0.00,,---,0.21,VWS V15.00,2013-09-25 00:00:00,
2013-09-24 20:03:00,79.6,74.7,29.91,NW,321,0.0,1.0,85,0.00,,---,0.21,VWS V14.01,2013-09-25 00:03:00,
2013-09-24 20:08:00,79.6,74.7,29.91,WNW,282,0.0,2.0,85,0.00,,---,0.21,VWS V14.01,2013-09-25 00:08:00,
2013-09-24 20:13:00,79.7,74.4,29.91,WNW,297,0.0,2.0,84,0.00,,---,0.21,VWS V14.01,2013-09-25 00:13:00,
2013-09-24 20:15:00,79.3,74.1,29.90,West,262,0.0,3.0,84,0.00,,---,0.21,VWS V15.00,2013-09-25 00:15:00,
2013-09-24 20:18:00,79.9,75.0,29.91,West,274,0.0,1.0,85,0.00,,---,0.21,VWS V14.01,2013-09-25 00:18:00,
2013-09-24 20:23:00,79.9,75.0,29.91,NW,310,0.0,1.0,85,0.00,,---,0.21,VWS V14.01,2013-09-25 00:23:00,
2013-09-24 20:28:00,79.9,75.0,29.91,NW,323,0.0,2.0,85,0.00,,---,0.21,VWS V14.01,2013-09-25 00:28:00,
2013-09-24 20:30:00,79.2,73.9,29.89,SW,218,0.0,7.0,84,0.00,,---,0.21,VWS V15.00,2013-09-25 00:30:00,
2013-09-24 20:33:00,80.0,73.7,29.91,NW,321,1.0,2.0,81,0.00,,---,0.21,VWS V14.01,2013-09-25 00:33:00,
2013-09-24 20:38:00,80.3,72.8,29.92,NW,308,1.0,7.0,78,0.00,,---,0.21,VWS V14.01,2013-09-25 00:38:00,
2013-09-24 20:43:00,80.3,72.4,29.91,NW,311,1.0,9.0,77,0.00,,---,0.21,VWS V14.01,2013-09-25 00:43:00,
2013-09-24 20:45:00,79.2,73.9,29.89,WNW,285,0.0,2.0,84,0.00,,---,0.21,VWS V15.00,2013-09-25 00:45:00,
2013-09-24 20:48:00,80.3,72.4,29.92,WNW,298,1.0,4.0,77,0.00,,---,0.21,VWS V14.01,2013-09-25 00:48:00,
2013-09-24 20:54:00,80.1,72.2,29.92,NW,320,1.0,4.0,77,0.00,,---,0.21,VWS V14.01,2013-09-25 00:54:00,
2013-09-24 20:59:00,79.9,72.8,29.92,NW,312,2.0,4.0,79,0.00,,---,0.21,VWS V14.01,2013-09-25 00:59:00,
2013-09-24 21:00:00,79.8,72.7,29.92,West,279,0.0,4.0,79,0.00,,---,0.21,VWS V15.00,2013-09-25 01:00:00,
2013-09-24 21:04:00,79.7,72.6,29.93,West,266,0.0,1.0,79,0.00,,---,0.21,VWS V14.01,2013-09-25 01:04:00,
2013-09-24 21:09:00,79.5,72.4,29.93,NW,311,0.0,2.0,79,0.00,,---,0.21,VWS V14.01,2013-09-25 01:09:00,
2013-09-24 21:14:00,79.4,72.7,29.93,NW,316,0.0,2.0,80,0.00,,---,0.21,VWS V14.01,2013-09-25 01:14:00,
2013-09-24 21:15:00,79.8,74.5,29.91,West,274,0.0,2.0,84,0.00,,---,0.21,VWS V15.00,2013-09-25 01:15:00,
2013-09-24 21:19:00,79.3,73.0,29.93,WNW,293,0.0,1.0,81,0.00,,---,0.21,VWS V14.01,2013-09-25 01:19:00,
2013-09-24 21:24:00,79.1,72.8,29.93,WNW,289,0.0,1.0,81,0.00,,---,0.21,VWS V14.01,2013-09-25 01:24:00,
2013-09-24 21:29:00,79.0,72.7,29.93,WNW,289,0.0,1.0,81,0.00,,---,0.21,VWS V14.01,2013-09-25 01:29:00,
2013-09-24 21:30:00,79.9,73.9,29.91,NW,321,1.0,4.0,82,0.00,,---,0.21,VWS V15.00,2013-09-25 01:30:00,
2013-09-24 21:34:00,78.9,72.6,29.93,West,275,0.0,3.0,81,0.00,,---,0.21,VWS V14.01,2013-09-25 01:34:00,
2013-09-24 21:39:00,78.8,72.5,29.93,West,276,0.0,3.0,81,0.00,,---,0.21,VWS V14.01,2013-09-25 01:39:00,
2013-09-24 21:44:00,78.8,72.8,29.93,West,276,0.0,3.0,82,0.00,,---,0.21,VWS V14.01,2013-09-25 01:44:00,
2013-09-24 21:45:00,80.3,72.4,29.92,NW,307,1.0,9.0,77,0.00,,---,0.21,VWS V15.00,2013-09-25 01:45:00,
2013-09-24 21:49:00,78.8,72.8,29.93,West,276,0.0,0.0,82,0.00,,---,0.21,VWS V14.01,2013-09-25 01:49:00,
2013-09-24 21:54:00,78.7,72.4,29.93,West,275,0.0,1.0,81,0.00,,---,0.21,VWS V14.01,2013-09-25 01:54:00,
2013-09-24 21:59:00,78.7,72.4,29.93,West,268,0.0,1.0,81,0.00,,---,0.21,VWS V14.01,2013-09-25 01:59:00,
2013-09-24 22:00:00,79.8,72.7,29.92,West,279,0.0,4.0,79,0.00,,---,0.21,VWS V15.00,2013-09-25 02:00:00,
2013-09-24 22:04:00,78.8,72.5,29.93,West,271,0.0,0.0,81,0.00,,---,0.21,VWS V14.01,2013-09-25 02:04:00,
2013-09-24 22:09:00,78.6,72.7,29.92,West,271,0.0,0.0,82,0.00,,---,0.21,VWS V14.01,2013-09-25 02:09:00,
2013-09-24 22:14:00,78.5,72.6,29.92,West,271,0.0,0.0,82,0.00,,---,0.21,VWS V14.01,2013-09-25 02:14:00,
2013-09-24 22:15:00,79.3,72.6,29.93,WNW,293,0.0,2.0,80,0.00,,---,0.21,VWS V15.00,2013-09-25 02:15:00,
2013-09-24 22:19:00,78.4,72.4,29.92,West,271,0.0,0.0,82,0.00,,---,0.21,VWS V14.01,2013-09-25 02:19:00,
2013-09-24 22:24:00,78.4,72.8,29.92,West,271,0.0,0.0,83,0.00,,---,0.21,VWS V14.01,2013-09-25 02:24:00,
2013-09-24 22:29:00,78.4,72.8,29.92,West,271,0.0,0.0,83,0.00,,---,0.21,VWS V14.01,2013-09-25 02:29:00,
2013-09-24 22:30:00,79.0,72.7,29.93,WNW,289,0.0,1.0,81,0.00,,---,0.21,VWS V15.00,2013-09-25 02:30:00,
2013-09-24 22:34:00,78.4,72.8,29.92,West,271,0.0,1.0,83,0.00,,---,0.21,VWS V14.01,2013-09-25 02:34:00,
2013-09-24 22:39:00,78.4,72.8,29.92,West,272,0.0,1.0,83,0.00,,---,0.21,VWS V14.01,2013-09-25 02:39:00,
2013-09-24 22:44:00,78.4,72.8,29.92,West,272,0.0,1.0,83,0.00,,---,0.21,VWS V14.01,2013-09-25 02:44:00,
2013-09-24 22:45:00,78.8,72.8,29.93,West,276,0.0,3.0,82,0.00,,---,0.21,VWS V15.00,2013-09-25 02:45:00,
2013-09-24 22:49:00,78.4,72.4,29.92,West,272,0.0,1.0,82,0.00,,---,0.21,VWS V14.01,2013-09-25 02:49:00,
2013-09-24 22:54:00,78.5,72.6,29.92,West,272,0.0,1.0,82,0.00,,---,0.21,VWS V14.01,2013-09-25 02:54:00,
2013-09-24 22:59:00,78.4,72.4,29.92,West,272,0.0,1.0,82,0.00,,---,0.21,VWS V14.01,2013-09-25 02:59:00,
2013-09-24 23:00:00,78.8,72.5,29.93,West,271,0.0,1.0,81,0.00,,---,0.21,VWS V15.00,2013-09-25 03:00:00,
2013-09-24 23:04:00,78.4,72.4,29.92,West,272,0.0,0.0,82,0.00,,---,0.21,VWS V14.01,2013-09-25 03:04:00,
2013-09-24 23:10:00,78.3,72.7,29.92,West,272,0.0,0.0,83,0.00,,---,0.21,VWS V14.01,2013-09-25 03:10:00,
2013-09-24 23:15:00,78.2,72.6,29.92,West,272,0.0,0.0,83,0.00,,---,0.21,VWS V14.01,2013-09-25 03:15:00,
2013-09-24 23:20:00,78.2,73.0,29.91,West,272,0.0,0.0,84,0.00,,---,0.21,VWS V14.01,2013-09-25 03:20:00,
2013-09-24 23:25:00,78.1,72.9,29.92,West,272,0.0,0.0,84,0.00,,---,0.21,VWS V14.01,2013-09-25 03:25:00,
2013-09-24 23:30:00,78.2,73.0,29.91,WNW,290,0.0,2.0,84,0.00,,---,0.21,VWS V14.01,2013-09-25 03:30:00,
2013-09-24 23:35:00,78.3,73.1,29.91,WNW,289,0.0,1.0,84,0.00,,---,0.21,VWS V14.01,2013-09-25 03:35:00,
2013-09-24 23:40:00,78.3,73.1,29.92,WNW,290,0.0,1.0,84,0.00,,---,0.21,VWS V14.01,2013-09-25 03:40:00,
2013-09-24 23:45:00,78.3,73.1,29.92,WNW,291,0.0,1.0,84,0.00,,---,0.21,VWS V14.01,2013-09-25 03:45:00,
2013-09-24 23:50:00,78.3,73.1,29.92,WNW,291,0.0,1.0,84,0.00,,---,0.21,VWS V14.01,2013-09-25 03:50:00,
2013-09-24 23:55:00,78.3,73.1,29.92,NW,314,0.0,4.0,84,0.00,,---,0.21,VWS V14.01,2013-09-25 03:55:00,